sensor_id;sensor_type;location;lat;lon;timestamp;P1;durP1;ratioP1;P2;durP2;ratioP2
17872;SDS011;36318;42.620;23.338;2022-10-17T00:01:26;7.43;;;6.57;;
17872;SDS011;36318;42.620;23.338;2022-10-17T00:03:53;7.93;;;7.13;;
17872;SDS011;36318;42.620;23.338;2022-10-17T00:06:19;7.17;;;6.47;;
17872;SDS011;36318;42.620;23.338;2022-10-17T00:08:46;7.40;;;6.53;;
17872;SDS011;36318;42.620;23.338;2022-10-17T00:11:14;7.53;;;6.33;;
17872;SDS011;36318;42.620;23.338;2022-10-17T00:13:42;11.87;;;6.97;;
17872;SDS011;36318;42.620;23.338;2022-10-17T00:16:09;7.73;;;6.80;;
17872;SDS011;36318;42.620;23.338;2022-10-17T00:18:38;8.20;;;7.27;;
17872;SDS011;36318;42.620;23.338;2022-10-17T00:21:04;11.60;;;7.07;;
17872;SDS011;36318;42.620;23.338;2022-10-17T00:23:32;8.40;;;7.03;;
17872;SDS011;36318;42.620;23.338;2022-10-17T00:25:59;8.77;;;7.20;;
17872;SDS011;36318;42.620;23.338;2022-10-17T00:28:27;7.83;;;7.03;;
17872;SDS011;36318;42.620;23.338;2022-10-17T00:30:54;9.07;;;7.53;;
17872;SDS011;36318;42.620;23.338;2022-10-17T00:33:22;12.93;;;8.30;;
17872;SDS011;36318;42.620;23.338;2022-10-17T00:35:50;11.57;;;8.57;;
17872;SDS011;36318;42.620;23.338;2022-10-17T00:38:16;13.83;;;8.60;;
17872;SDS011;36318;42.620;23.338;2022-10-17T00:40:43;10.77;;;9.13;;
17872;SDS011;36318;42.620;23.338;2022-10-17T00:43:12;10.27;;;8.10;;
17872;SDS011;36318;42.620;23.338;2022-10-17T00:45:42;10.13;;;8.83;;
17872;SDS011;36318;42.620;23.338;2022-10-17T00:48:09;11.90;;;9.67;;
17872;SDS011;36318;42.620;23.338;2022-10-17T00:50:38;12.93;;;9.50;;
17872;SDS011;36318;42.620;23.338;2022-10-17T00:53:09;12.67;;;9.33;;
17872;SDS011;36318;42.620;23.338;2022-10-17T00:55:37;11.83;;;9.93;;
17872;SDS011;36318;42.620;23.338;2022-10-17T00:58:10;15.27;;;9.10;;
17872;SDS011;36318;42.620;23.338;2022-10-17T01:00:37;13.17;;;9.37;;
17872;SDS011;36318;42.620;23.338;2022-10-17T01:03:03;13.60;;;9.33;;
17872;SDS011;36318;42.620;23.338;2022-10-17T01:05:30;11.93;;;8.50;;
17872;SDS011;36318;42.620;23.338;2022-10-17T01:07:58;14.20;;;8.50;;
17872;SDS011;36318;42.620;23.338;2022-10-17T01:10:28;10.87;;;9.30;;
17872;SDS011;36318;42.620;23.338;2022-10-17T01:13:03;12.50;;;9.90;;
17872;SDS011;36318;42.620;23.338;2022-10-17T01:15:39;12.63;;;9.50;;
17872;SDS011;36318;42.620;23.338;2022-10-17T01:18:20;12.77;;;9.47;;
17872;SDS011;36318;42.620;23.338;2022-10-17T01:21:05;12.50;;;9.33;;
17872;SDS011;36318;42.620;23.338;2022-10-17T01:27:17;8.83;;;7.47;;
17872;SDS011;36318;42.620;23.338;2022-10-17T01:30:18;9.67;;;7.87;;
17872;SDS011;36318;42.620;23.338;2022-10-17T01:32:57;8.73;;;6.70;;
17872;SDS011;36318;42.620;23.338;2022-10-17T01:35:28;11.73;;;8.80;;
17872;SDS011;36318;42.620;23.338;2022-10-17T01:38:03;16.73;;;12.70;;
17872;SDS011;36318;42.620;23.338;2022-10-17T01:40:36;13.93;;;8.60;;
17872;SDS011;36318;42.620;23.338;2022-10-17T01:43:08;9.33;;;7.67;;
17872;SDS011;36318;42.620;23.338;2022-10-17T01:45:42;11.70;;;8.40;;
17872;SDS011;36318;42.620;23.338;2022-10-17T01:48:16;9.57;;;6.97;;
17872;SDS011;36318;42.620;23.338;2022-10-17T01:50:47;8.40;;;7.23;;
17872;SDS011;36318;42.620;23.338;2022-10-17T01:53:18;7.47;;;6.30;;
17872;SDS011;36318;42.620;23.338;2022-10-17T01:55:49;6.43;;;5.83;;
17872;SDS011;36318;42.620;23.338;2022-10-17T01:58:20;8.07;;;5.47;;
17872;SDS011;36318;42.620;23.338;2022-10-17T02:00:52;8.77;;;5.80;;
17872;SDS011;36318;42.620;23.338;2022-10-17T02:03:23;6.97;;;5.63;;
17872;SDS011;36318;42.620;23.338;2022-10-17T02:05:52;5.60;;;4.73;;
17872;SDS011;36318;42.620;23.338;2022-10-17T02:08:24;6.93;;;5.13;;
17872;SDS011;36318;42.620;23.338;2022-10-17T02:10:53;7.80;;;4.70;;
17872;SDS011;36318;42.620;23.338;2022-10-17T02:13:25;7.47;;;5.43;;
17872;SDS011;36318;42.620;23.338;2022-10-17T02:15:58;6.53;;;5.40;;
17872;SDS011;36318;42.620;23.338;2022-10-17T02:18:44;8.63;;;5.70;;
17872;SDS011;36318;42.620;23.338;2022-10-17T02:21:23;6.13;;;5.23;;
17872;SDS011;36318;42.620;23.338;2022-10-17T02:23:59;6.23;;;5.33;;
17872;SDS011;36318;42.620;23.338;2022-10-17T02:26:33;7.20;;;5.10;;
17872;SDS011;36318;42.620;23.338;2022-10-17T02:29:06;4.80;;;4.30;;
17872;SDS011;36318;42.620;23.338;2022-10-17T02:31:40;5.90;;;4.50;;
17872;SDS011;36318;42.620;23.338;2022-10-17T02:34:13;10.47;;;4.97;;
17872;SDS011;36318;42.620;23.338;2022-10-17T02:36:44;6.87;;;4.70;;
17872;SDS011;36318;42.620;23.338;2022-10-17T02:39:14;7.33;;;3.83;;
17872;SDS011;36318;42.620;23.338;2022-10-17T02:41:41;4.73;;;3.70;;
17872;SDS011;36318;42.620;23.338;2022-10-17T02:44:09;4.70;;;4.10;;
17872;SDS011;36318;42.620;23.338;2022-10-17T02:46:36;6.07;;;4.10;;
17872;SDS011;36318;42.620;23.338;2022-10-17T02:49:07;4.80;;;4.27;;
17872;SDS011;36318;42.620;23.338;2022-10-17T02:51:43;7.27;;;5.07;;
17872;SDS011;36318;42.620;23.338;2022-10-17T02:54:14;8.90;;;4.90;;
17872;SDS011;36318;42.620;23.338;2022-10-17T02:56:47;7.13;;;5.60;;
17872;SDS011;36318;42.620;23.338;2022-10-17T02:59:19;8.33;;;6.03;;
17872;SDS011;36318;42.620;23.338;2022-10-17T03:01:48;7.87;;;5.83;;
17872;SDS011;36318;42.620;23.338;2022-10-17T03:04:17;7.63;;;6.10;;
17872;SDS011;36318;42.620;23.338;2022-10-17T03:06:45;8.33;;;7.30;;
17872;SDS011;36318;42.620;23.338;2022-10-17T03:09:13;9.83;;;8.03;;
17872;SDS011;36318;42.620;23.338;2022-10-17T03:11:40;11.53;;;8.50;;
17872;SDS011;36318;42.620;23.338;2022-10-17T03:14:07;11.63;;;8.20;;
17872;SDS011;36318;42.620;23.338;2022-10-17T03:16:34;13.53;;;7.93;;
17872;SDS011;36318;42.620;23.338;2022-10-17T03:19:00;10.93;;;9.10;;
17872;SDS011;36318;42.620;23.338;2022-10-17T03:21:29;12.80;;;9.30;;
17872;SDS011;36318;42.620;23.338;2022-10-17T03:23:56;9.47;;;8.50;;
17872;SDS011;36318;42.620;23.338;2022-10-17T03:26:23;10.97;;;8.10;;
17872;SDS011;36318;42.620;23.338;2022-10-17T03:28:49;13.33;;;7.63;;
17872;SDS011;36318;42.620;23.338;2022-10-17T03:31:16;8.67;;;7.60;;
17872;SDS011;36318;42.620;23.338;2022-10-17T03:33:43;8.60;;;7.20;;
17872;SDS011;36318;42.620;23.338;2022-10-17T03:36:11;9.53;;;8.00;;
17872;SDS011;36318;42.620;23.338;2022-10-17T03:38:41;9.37;;;7.53;;
17872;SDS011;36318;42.620;23.338;2022-10-17T03:41:08;8.60;;;7.13;;
17872;SDS011;36318;42.620;23.338;2022-10-17T03:43:36;14.37;;;8.63;;
17872;SDS011;36318;42.620;23.338;2022-10-17T03:46:03;12.20;;;9.00;;
17872;SDS011;36318;42.620;23.338;2022-10-17T03:48:30;18.13;;;9.60;;
17872;SDS011;36318;42.620;23.338;2022-10-17T03:50:58;16.30;;;10.80;;
17872;SDS011;36318;42.620;23.338;2022-10-17T03:53:26;18.30;;;10.40;;
17872;SDS011;36318;42.620;23.338;2022-10-17T03:55:55;14.93;;;9.10;;
17872;SDS011;36318;42.620;23.338;2022-10-17T03:58:22;12.50;;;8.30;;
17872;SDS011;36318;42.620;23.338;2022-10-17T04:00:49;11.47;;;7.77;;
17872;SDS011;36318;42.620;23.338;2022-10-17T04:03:16;13.83;;;7.80;;
17872;SDS011;36318;42.620;23.338;2022-10-17T04:05:43;11.00;;;7.97;;
17872;SDS011;36318;42.620;23.338;2022-10-17T04:08:10;12.83;;;7.97;;
17872;SDS011;36318;42.620;23.338;2022-10-17T04:10:36;11.67;;;8.03;;
17872;SDS011;36318;42.620;23.338;2022-10-17T04:13:05;13.27;;;8.77;;
17872;SDS011;36318;42.620;23.338;2022-10-17T04:15:31;12.73;;;8.20;;
17872;SDS011;36318;42.620;23.338;2022-10-17T04:17:58;13.73;;;8.77;;
17872;SDS011;36318;42.620;23.338;2022-10-17T04:20:25;17.17;;;9.17;;
17872;SDS011;36318;42.620;23.338;2022-10-17T04:22:52;13.33;;;8.10;;
17872;SDS011;36318;42.620;23.338;2022-10-17T04:25:19;9.83;;;8.83;;
17872;SDS011;36318;42.620;23.338;2022-10-17T04:27:45;11.17;;;7.80;;
17872;SDS011;36318;42.620;23.338;2022-10-17T04:30:15;11.63;;;8.00;;
17872;SDS011;36318;42.620;23.338;2022-10-17T04:32:42;11.50;;;7.50;;
17872;SDS011;36318;42.620;23.338;2022-10-17T04:35:08;10.27;;;6.80;;
17872;SDS011;36318;42.620;23.338;2022-10-17T04:37:35;8.90;;;7.87;;
17872;SDS011;36318;42.620;23.338;2022-10-17T04:40:03;9.60;;;7.87;;
17872;SDS011;36318;42.620;23.338;2022-10-17T04:42:30;13.53;;;9.30;;
17872;SDS011;36318;42.620;23.338;2022-10-17T04:44:57;11.77;;;8.57;;
17872;SDS011;36318;42.620;23.338;2022-10-17T04:47:25;16.43;;;8.60;;
17872;SDS011;36318;42.620;23.338;2022-10-17T04:49:51;10.77;;;8.37;;
17872;SDS011;36318;42.620;23.338;2022-10-17T04:52:18;13.83;;;9.43;;
17872;SDS011;36318;42.620;23.338;2022-10-17T04:54:45;19.10;;;10.67;;
17872;SDS011;36318;42.620;23.338;2022-10-17T04:57:12;15.93;;;9.90;;
17872;SDS011;36318;42.620;23.338;2022-10-17T04:59:39;13.83;;;9.90;;
17872;SDS011;36318;42.620;23.338;2022-10-17T05:02:05;13.30;;;8.40;;
17872;SDS011;36318;42.620;23.338;2022-10-17T05:04:34;22.47;;;10.47;;
17872;SDS011;36318;42.620;23.338;2022-10-17T05:07:00;12.60;;;10.00;;
17872;SDS011;36318;42.620;23.338;2022-10-17T05:09:27;14.03;;;10.30;;
17872;SDS011;36318;42.620;23.338;2022-10-17T05:11:54;16.23;;;10.53;;
17872;SDS011;36318;42.620;23.338;2022-10-17T05:14:21;13.50;;;10.40;;
17872;SDS011;36318;42.620;23.338;2022-10-17T05:16:48;12.33;;;10.20;;
17872;SDS011;36318;42.620;23.338;2022-10-17T05:19:14;18.47;;;10.80;;
17872;SDS011;36318;42.620;23.338;2022-10-17T05:21:43;17.10;;;10.57;;
17872;SDS011;36318;42.620;23.338;2022-10-17T05:24:12;15.77;;;10.83;;
17872;SDS011;36318;42.620;23.338;2022-10-17T05:26:42;12.60;;;10.43;;
17872;SDS011;36318;42.620;23.338;2022-10-17T05:29:08;11.83;;;9.87;;
17872;SDS011;36318;42.620;23.338;2022-10-17T05:31:36;16.70;;;10.37;;
17872;SDS011;36318;42.620;23.338;2022-10-17T05:34:03;12.73;;;9.20;;
17872;SDS011;36318;42.620;23.338;2022-10-17T05:36:29;13.27;;;9.90;;
17872;SDS011;36318;42.620;23.338;2022-10-17T05:38:57;11.77;;;9.07;;
17872;SDS011;36318;42.620;23.338;2022-10-17T05:41:24;12.97;;;9.37;;
17872;SDS011;36318;42.620;23.338;2022-10-17T05:43:51;16.33;;;9.83;;
17872;SDS011;36318;42.620;23.338;2022-10-17T05:46:18;14.60;;;9.97;;
17872;SDS011;36318;42.620;23.338;2022-10-17T05:48:45;14.83;;;9.57;;
17872;SDS011;36318;42.620;23.338;2022-10-17T05:51:12;12.43;;;9.00;;
17872;SDS011;36318;42.620;23.338;2022-10-17T05:53:39;12.93;;;9.03;;
17872;SDS011;36318;42.620;23.338;2022-10-17T05:56:09;16.53;;;9.17;;
17872;SDS011;36318;42.620;23.338;2022-10-17T05:58:39;11.97;;;9.10;;
17872;SDS011;36318;42.620;23.338;2022-10-17T06:01:06;13.57;;;9.50;;
17872;SDS011;36318;42.620;23.338;2022-10-17T06:03:33;16.43;;;12.33;;
17872;SDS011;36318;42.620;23.338;2022-10-17T06:06:03;15.10;;;10.87;;
17872;SDS011;36318;42.620;23.338;2022-10-17T06:08:31;36.73;;;23.13;;
17872;SDS011;36318;42.620;23.338;2022-10-17T06:10:58;27.40;;;18.40;;
17872;SDS011;36318;42.620;23.338;2022-10-17T06:13:27;27.70;;;17.63;;
17872;SDS011;36318;42.620;23.338;2022-10-17T06:15:55;35.03;;;21.13;;
17872;SDS011;36318;42.620;23.338;2022-10-17T06:18:21;18.63;;;12.80;;
17872;SDS011;36318;42.620;23.338;2022-10-17T06:20:48;18.63;;;11.70;;
17872;SDS011;36318;42.620;23.338;2022-10-17T06:23:15;14.23;;;9.43;;
17872;SDS011;36318;42.620;23.338;2022-10-17T06:25:42;15.40;;;9.40;;
17872;SDS011;36318;42.620;23.338;2022-10-17T06:28:09;18.23;;;9.53;;
17872;SDS011;36318;42.620;23.338;2022-10-17T06:30:38;17.53;;;9.00;;
17872;SDS011;36318;42.620;23.338;2022-10-17T06:33:05;15.37;;;9.73;;
17872;SDS011;36318;42.620;23.338;2022-10-17T06:35:32;20.77;;;9.67;;
17872;SDS011;36318;42.620;23.338;2022-10-17T06:37:59;16.23;;;10.03;;
17872;SDS011;36318;42.620;23.338;2022-10-17T06:40:26;14.33;;;9.87;;
17872;SDS011;36318;42.620;23.338;2022-10-17T06:42:55;15.87;;;10.27;;
17872;SDS011;36318;42.620;23.338;2022-10-17T06:45:22;19.33;;;10.00;;
17872;SDS011;36318;42.620;23.338;2022-10-17T06:47:50;13.97;;;9.47;;
17872;SDS011;36318;42.620;23.338;2022-10-17T06:50:17;16.90;;;9.60;;
17872;SDS011;36318;42.620;23.338;2022-10-17T06:52:43;16.20;;;10.10;;
17872;SDS011;36318;42.620;23.338;2022-10-17T06:55:10;18.47;;;10.57;;
17872;SDS011;36318;42.620;23.338;2022-10-17T06:57:37;18.70;;;10.03;;
17872;SDS011;36318;42.620;23.338;2022-10-17T07:00:04;19.67;;;10.07;;
17872;SDS011;36318;42.620;23.338;2022-10-17T07:02:32;19.97;;;9.67;;
17872;SDS011;36318;42.620;23.338;2022-10-17T07:05:00;17.47;;;10.27;;
17872;SDS011;36318;42.620;23.338;2022-10-17T07:07:29;19.23;;;9.90;;
17872;SDS011;36318;42.620;23.338;2022-10-17T07:09:56;18.23;;;9.43;;
17872;SDS011;36318;42.620;23.338;2022-10-17T07:12:23;19.13;;;9.80;;
17872;SDS011;36318;42.620;23.338;2022-10-17T07:14:50;18.93;;;9.63;;
17872;SDS011;36318;42.620;23.338;2022-10-17T07:17:17;20.47;;;10.23;;
17872;SDS011;36318;42.620;23.338;2022-10-17T07:19:44;21.70;;;10.33;;
17872;SDS011;36318;42.620;23.338;2022-10-17T07:22:12;13.40;;;8.83;;
17872;SDS011;36318;42.620;23.338;2022-10-17T07:24:39;18.80;;;8.57;;
17872;SDS011;36318;42.620;23.338;2022-10-17T07:27:06;15.60;;;7.03;;
17872;SDS011;36318;42.620;23.338;2022-10-17T07:29:32;13.53;;;7.23;;
17872;SDS011;36318;42.620;23.338;2022-10-17T07:31:59;17.93;;;7.57;;
17872;SDS011;36318;42.620;23.338;2022-10-17T07:34:28;19.30;;;7.80;;
17872;SDS011;36318;42.620;23.338;2022-10-17T07:36:55;15.17;;;7.27;;
17872;SDS011;36318;42.620;23.338;2022-10-17T07:39:24;7.53;;;5.80;;
17872;SDS011;36318;42.620;23.338;2022-10-17T07:41:50;13.70;;;5.50;;
17872;SDS011;36318;42.620;23.338;2022-10-17T07:44:18;8.47;;;5.30;;
17872;SDS011;36318;42.620;23.338;2022-10-17T07:46:45;11.87;;;5.73;;
17872;SDS011;36318;42.620;23.338;2022-10-17T07:49:12;6.27;;;5.13;;
17872;SDS011;36318;42.620;23.338;2022-10-17T07:51:38;11.03;;;5.87;;
17872;SDS011;36318;42.620;23.338;2022-10-17T07:54:05;10.43;;;5.43;;
17872;SDS011;36318;42.620;23.338;2022-10-17T07:56:33;9.07;;;5.30;;
17872;SDS011;36318;42.620;23.338;2022-10-17T07:59:01;8.60;;;5.20;;
17872;SDS011;36318;42.620;23.338;2022-10-17T08:01:28;12.05;;;5.32;;
17872;SDS011;36318;42.620;23.338;2022-10-17T08:03:55;10.40;;;5.70;;
17872;SDS011;36318;42.620;23.338;2022-10-17T08:06:21;10.85;;;5.28;;
17872;SDS011;36318;42.620;23.338;2022-10-17T08:08:48;14.75;;;6.43;;
17872;SDS011;36318;42.620;23.338;2022-10-17T08:11:15;14.52;;;6.40;;
17872;SDS011;36318;42.620;23.338;2022-10-17T08:13:43;14.43;;;5.82;;
17872;SDS011;36318;42.620;23.338;2022-10-17T08:16:11;10.38;;;4.95;;
17872;SDS011;36318;42.620;23.338;2022-10-17T08:18:39;8.88;;;5.80;;
17872;SDS011;36318;42.620;23.338;2022-10-17T08:21:07;13.57;;;5.78;;
17872;SDS011;36318;42.620;23.338;2022-10-17T08:23:35;9.95;;;4.80;;
17872;SDS011;36318;42.620;23.338;2022-10-17T08:26:03;16.00;;;6.35;;
17872;SDS011;36318;42.620;23.338;2022-10-17T08:28:34;9.43;;;5.55;;
17872;SDS011;36318;42.620;23.338;2022-10-17T08:31:04;18.05;;;6.28;;
17872;SDS011;36318;42.620;23.338;2022-10-17T08:33:32;9.88;;;6.00;;
17872;SDS011;36318;42.620;23.338;2022-10-17T08:35:59;16.98;;;6.18;;
17872;SDS011;36318;42.620;23.338;2022-10-17T08:38:27;16.13;;;5.03;;
17872;SDS011;36318;42.620;23.338;2022-10-17T08:40:54;8.85;;;5.22;;
17872;SDS011;36318;42.620;23.338;2022-10-17T08:46:20;9.82;;;5.70;;
17872;SDS011;36318;42.620;23.338;2022-10-17T08:48:47;11.05;;;4.95;;
17872;SDS011;36318;42.620;23.338;2022-10-17T08:51:17;9.77;;;4.18;;
17872;SDS011;36318;42.620;23.338;2022-10-17T08:53:49;10.18;;;4.55;;
17872;SDS011;36318;42.620;23.338;2022-10-17T08:56:20;5.75;;;3.72;;
17872;SDS011;36318;42.620;23.338;2022-10-17T08:58:49;11.48;;;4.22;;
17872;SDS011;36318;42.620;23.338;2022-10-17T09:01:27;8.68;;;4.55;;
17872;SDS011;36318;42.620;23.338;2022-10-17T09:06:56;7.32;;;4.45;;
17872;SDS011;36318;42.620;23.338;2022-10-17T09:09:31;6.53;;;4.28;;
17872;SDS011;36318;42.620;23.338;2022-10-17T09:12:12;10.13;;;4.30;;
17872;SDS011;36318;42.620;23.338;2022-10-17T09:14:46;7.40;;;4.13;;
17872;SDS011;36318;42.620;23.338;2022-10-17T09:17:26;11.23;;;4.15;;
17872;SDS011;36318;42.620;23.338;2022-10-17T09:20:03;8.52;;;4.18;;
17872;SDS011;36318;42.620;23.338;2022-10-17T09:22:36;9.02;;;4.22;;
17872;SDS011;36318;42.620;23.338;2022-10-17T09:25:09;8.13;;;4.60;;
17872;SDS011;36318;42.620;23.338;2022-10-17T09:27:39;8.77;;;4.30;;
17872;SDS011;36318;42.620;23.338;2022-10-17T09:30:14;5.55;;;3.25;;
17872;SDS011;36318;42.620;23.338;2022-10-17T09:32:48;4.93;;;2.70;;
17872;SDS011;36318;42.620;23.338;2022-10-17T09:35:16;6.07;;;3.60;;
17872;SDS011;36318;42.620;23.338;2022-10-17T09:37:44;3.87;;;2.83;;
17872;SDS011;36318;42.620;23.338;2022-10-17T09:40:14;4.90;;;3.70;;
17872;SDS011;36318;42.620;23.338;2022-10-17T09:42:45;9.38;;;4.20;;
17872;SDS011;36318;42.620;23.338;2022-10-17T09:45:15;10.45;;;3.97;;
17872;SDS011;36318;42.620;23.338;2022-10-17T09:47:51;9.32;;;4.38;;
17872;SDS011;36318;42.620;23.338;2022-10-17T09:50:26;4.40;;;3.88;;
17872;SDS011;36318;42.620;23.338;2022-10-17T09:52:56;8.52;;;4.03;;
17872;SDS011;36318;42.620;23.338;2022-10-17T09:55:29;9.13;;;3.70;;
17872;SDS011;36318;42.620;23.338;2022-10-17T09:58:00;13.35;;;3.58;;
17872;SDS011;36318;42.620;23.338;2022-10-17T10:00:29;6.18;;;3.17;;
17872;SDS011;36318;42.620;23.338;2022-10-17T10:03:09;8.80;;;2.97;;
17872;SDS011;36318;42.620;23.338;2022-10-17T10:05:41;6.10;;;3.40;;
17872;SDS011;36318;42.620;23.338;2022-10-17T10:08:22;8.50;;;3.65;;
17872;SDS011;36318;42.620;23.338;2022-10-17T10:10:56;10.52;;;3.60;;
17872;SDS011;36318;42.620;23.338;2022-10-17T10:13:25;9.50;;;3.47;;
17872;SDS011;36318;42.620;23.338;2022-10-17T10:15:52;7.43;;;3.47;;
17872;SDS011;36318;42.620;23.338;2022-10-17T10:18:28;9.10;;;3.50;;
17872;SDS011;36318;42.620;23.338;2022-10-17T10:21:02;5.93;;;3.40;;
17872;SDS011;36318;42.620;23.338;2022-10-17T10:23:31;9.10;;;3.90;;
17872;SDS011;36318;42.620;23.338;2022-10-17T10:26:00;7.03;;;3.63;;
17872;SDS011;36318;42.620;23.338;2022-10-17T10:28:30;6.23;;;3.33;;
17872;SDS011;36318;42.620;23.338;2022-10-17T10:30:59;8.33;;;4.67;;
17872;SDS011;36318;42.620;23.338;2022-10-17T10:33:31;5.07;;;4.00;;
17872;SDS011;36318;42.620;23.338;2022-10-17T10:36:02;5.23;;;3.80;;
17872;SDS011;36318;42.620;23.338;2022-10-17T10:38:32;5.40;;;4.00;;
17872;SDS011;36318;42.620;23.338;2022-10-17T10:41:02;10.23;;;3.43;;
17872;SDS011;36318;42.620;23.338;2022-10-17T10:43:32;5.77;;;3.83;;
17872;SDS011;36318;42.620;23.338;2022-10-17T10:46:02;5.33;;;4.20;;
17872;SDS011;36318;42.620;23.338;2022-10-17T10:48:34;4.83;;;3.40;;
17872;SDS011;36318;42.620;23.338;2022-10-17T10:51:03;6.80;;;2.80;;
17872;SDS011;36318;42.620;23.338;2022-10-17T10:53:36;5.57;;;3.83;;
17872;SDS011;36318;42.620;23.338;2022-10-17T10:56:09;6.33;;;3.57;;
17872;SDS011;36318;42.620;23.338;2022-10-17T10:58:46;4.17;;;3.07;;
17872;SDS011;36318;42.620;23.338;2022-10-17T11:01:20;5.93;;;3.23;;
17872;SDS011;36318;42.620;23.338;2022-10-17T11:04:04;3.47;;;2.80;;
17872;SDS011;36318;42.620;23.338;2022-10-17T11:06:39;6.47;;;3.10;;
17872;SDS011;36318;42.620;23.338;2022-10-17T11:09:12;5.77;;;4.27;;
17872;SDS011;36318;42.620;23.338;2022-10-17T11:11:46;10.03;;;5.50;;
17872;SDS011;36318;42.620;23.338;2022-10-17T11:14:20;6.47;;;4.47;;
17872;SDS011;36318;42.620;23.338;2022-10-17T11:16:55;10.87;;;3.97;;
17872;SDS011;36318;42.620;23.338;2022-10-17T11:19:30;2.60;;;2.33;;
17872;SDS011;36318;42.620;23.338;2022-10-17T11:22:04;4.97;;;3.00;;
17872;SDS011;36318;42.620;23.338;2022-10-17T11:24:36;4.67;;;3.50;;
17872;SDS011;36318;42.620;23.338;2022-10-17T11:27:06;5.53;;;3.40;;
17872;SDS011;36318;42.620;23.338;2022-10-17T11:29:34;5.83;;;3.10;;
17872;SDS011;36318;42.620;23.338;2022-10-17T11:32:04;4.83;;;2.70;;
17872;SDS011;36318;42.620;23.338;2022-10-17T11:34:39;4.63;;;3.70;;
17872;SDS011;36318;42.620;23.338;2022-10-17T11:37:10;6.93;;;3.10;;
17872;SDS011;36318;42.620;23.338;2022-10-17T11:39:42;4.67;;;2.70;;
17872;SDS011;36318;42.620;23.338;2022-10-17T11:42:14;3.87;;;2.50;;
17872;SDS011;36318;42.620;23.338;2022-10-17T11:44:46;2.73;;;2.50;;
17872;SDS011;36318;42.620;23.338;2022-10-17T11:47:22;8.47;;;2.40;;
17872;SDS011;36318;42.620;23.338;2022-10-17T11:49:57;4.67;;;2.60;;
17872;SDS011;36318;42.620;23.338;2022-10-17T11:52:33;4.93;;;2.73;;
17872;SDS011;36318;42.620;23.338;2022-10-17T11:55:04;3.77;;;2.40;;
17872;SDS011;36318;42.620;23.338;2022-10-17T11:57:41;2.90;;;2.60;;
17872;SDS011;36318;42.620;23.338;2022-10-17T12:00:19;6.13;;;2.73;;
17872;SDS011;36318;42.620;23.338;2022-10-17T12:02:52;6.03;;;2.40;;
17872;SDS011;36318;42.620;23.338;2022-10-17T12:05:35;3.93;;;3.00;;
17872;SDS011;36318;42.620;23.338;2022-10-17T12:08:08;4.00;;;2.20;;
17872;SDS011;36318;42.620;23.338;2022-10-17T12:10:44;3.63;;;2.77;;
17872;SDS011;36318;42.620;23.338;2022-10-17T12:19:19;7.43;;;3.43;;
17872;SDS011;36318;42.620;23.338;2022-10-17T12:21:54;5.07;;;2.77;;
17872;SDS011;36318;42.620;23.338;2022-10-17T12:24:27;6.30;;;3.53;;
17872;SDS011;36318;42.620;23.338;2022-10-17T12:27:21;6.37;;;2.97;;
17872;SDS011;36318;42.620;23.338;2022-10-17T12:29:57;5.90;;;2.90;;
17872;SDS011;36318;42.620;23.338;2022-10-17T12:32:25;4.20;;;2.70;;
17872;SDS011;36318;42.620;23.338;2022-10-17T12:34:52;2.97;;;2.73;;
17872;SDS011;36318;42.620;23.338;2022-10-17T12:49:23;7.70;;;3.37;;
17872;SDS011;36318;42.620;23.338;2022-10-17T12:55:11;3.73;;;2.97;;
17872;SDS011;36318;42.620;23.338;2022-10-17T12:57:43;4.77;;;3.23;;
17872;SDS011;36318;42.620;23.338;2022-10-17T13:00:17;4.70;;;3.00;;
17872;SDS011;36318;42.620;23.338;2022-10-17T13:02:47;5.67;;;2.90;;
17872;SDS011;36318;42.620;23.338;2022-10-17T13:05:19;6.33;;;2.60;;
17872;SDS011;36318;42.620;23.338;2022-10-17T13:07:51;4.27;;;2.70;;
17872;SDS011;36318;42.620;23.338;2022-10-17T13:10:20;5.07;;;2.80;;
17872;SDS011;36318;42.620;23.338;2022-10-17T13:12:53;5.13;;;2.70;;
17872;SDS011;36318;42.620;23.338;2022-10-17T13:15:28;5.13;;;2.90;;
17872;SDS011;36318;42.620;23.338;2022-10-17T13:17:56;5.37;;;2.70;;
17872;SDS011;36318;42.620;23.338;2022-10-17T13:20:24;3.93;;;2.77;;
17872;SDS011;36318;42.620;23.338;2022-10-17T13:22:52;4.93;;;3.10;;
17872;SDS011;36318;42.620;23.338;2022-10-17T13:25:21;4.10;;;2.63;;
17872;SDS011;36318;42.620;23.338;2022-10-17T13:27:49;10.03;;;6.27;;
17872;SDS011;36318;42.620;23.338;2022-10-17T13:30:29;8.40;;;4.70;;
17872;SDS011;36318;42.620;23.338;2022-10-17T13:32:58;7.50;;;4.23;;
17872;SDS011;36318;42.620;23.338;2022-10-17T13:35:26;4.63;;;3.30;;
17872;SDS011;36318;42.620;23.338;2022-10-17T13:37:55;3.07;;;2.77;;
17872;SDS011;36318;42.620;23.338;2022-10-17T13:40:26;7.10;;;3.30;;
17872;SDS011;36318;42.620;23.338;2022-10-17T13:42:57;4.82;;;2.90;;
17872;SDS011;36318;42.620;23.338;2022-10-17T13:45:27;3.97;;;2.80;;
17872;SDS011;36318;42.620;23.338;2022-10-17T13:47:56;10.10;;;3.33;;
17872;SDS011;36318;42.620;23.338;2022-10-17T13:50:27;5.57;;;3.30;;
17872;SDS011;36318;42.620;23.338;2022-10-17T13:53:05;4.05;;;2.67;;
17872;SDS011;36318;42.620;23.338;2022-10-17T13:55:49;6.88;;;2.75;;
17872;SDS011;36318;42.620;23.338;2022-10-17T13:58:19;5.93;;;4.50;;
17872;SDS011;36318;42.620;23.338;2022-10-17T14:00:46;6.28;;;2.80;;
17872;SDS011;36318;42.620;23.338;2022-10-17T14:03:15;8.00;;;2.80;;
17872;SDS011;36318;42.620;23.338;2022-10-17T14:06:01;6.05;;;2.80;;
17872;SDS011;36318;42.620;23.338;2022-10-17T14:08:32;6.35;;;2.65;;
17872;SDS011;36318;42.620;23.338;2022-10-17T14:10:59;8.77;;;3.22;;
17872;SDS011;36318;42.620;23.338;2022-10-17T14:13:29;8.18;;;2.50;;
17872;SDS011;36318;42.620;23.338;2022-10-17T14:16:00;5.90;;;2.22;;
17872;SDS011;36318;42.620;23.338;2022-10-17T14:18:29;4.97;;;2.75;;
17872;SDS011;36318;42.620;23.338;2022-10-17T14:20:59;5.40;;;3.15;;
17872;SDS011;36318;42.620;23.338;2022-10-17T14:23:28;4.03;;;2.78;;
17872;SDS011;36318;42.620;23.338;2022-10-17T14:26:08;10.13;;;3.10;;
17872;SDS011;36318;42.620;23.338;2022-10-17T14:28:41;7.60;;;3.10;;
17872;SDS011;36318;42.620;23.338;2022-10-17T14:31:21;5.78;;;3.30;;
17872;SDS011;36318;42.620;23.338;2022-10-17T14:33:55;4.78;;;2.92;;
17872;SDS011;36318;42.620;23.338;2022-10-17T14:36:29;2.50;;;2.30;;
17872;SDS011;36318;42.620;23.338;2022-10-17T14:38:59;3.37;;;3.07;;
17872;SDS011;36318;42.620;23.338;2022-10-17T14:41:27;4.77;;;2.70;;
17872;SDS011;36318;42.620;23.338;2022-10-17T14:43:59;3.37;;;3.00;;
17872;SDS011;36318;42.620;23.338;2022-10-17T14:46:32;7.50;;;2.57;;
17872;SDS011;36318;42.620;23.338;2022-10-17T14:49:02;8.10;;;5.70;;
17872;SDS011;36318;42.620;23.338;2022-10-17T14:51:31;5.93;;;3.77;;
17872;SDS011;36318;42.620;23.338;2022-10-17T14:54:00;13.80;;;5.10;;
17872;SDS011;36318;42.620;23.338;2022-10-17T14:56:33;10.50;;;5.47;;
17872;SDS011;36318;42.620;23.338;2022-10-17T14:59:04;13.00;;;6.47;;
17872;SDS011;36318;42.620;23.338;2022-10-17T15:01:32;12.77;;;7.07;;
17872;SDS011;36318;42.620;23.338;2022-10-17T15:03:59;16.27;;;8.27;;
17872;SDS011;36318;42.620;23.338;2022-10-17T15:06:27;43.20;;;14.57;;
17872;SDS011;36318;42.620;23.338;2022-10-17T15:08:55;48.80;;;14.37;;
17872;SDS011;36318;42.620;23.338;2022-10-17T15:11:22;12.67;;;7.20;;
17872;SDS011;36318;42.620;23.338;2022-10-17T15:13:49;21.33;;;9.20;;